createdAt,value
2018-05-23T00:02:14.152Z,11.33
2018-05-23T00:04:42.469Z,11.30
2018-05-23T00:07:11.513Z,10.63
2018-05-23T00:09:39.908Z,11.10
2018-05-23T00:12:08.231Z,11.10
2018-05-23T00:14:37.294Z,10.40
2018-05-23T00:17:05.602Z,13.03
2018-05-23T00:19:34.838Z,11.03
2018-05-23T00:22:03.214Z,10.73
2018-05-23T00:24:32.023Z,10.90
2018-05-23T00:27:00.331Z,11.20
2018-05-23T00:29:29.450Z,11.33
2018-05-23T00:31:58.521Z,11.30
2018-05-23T00:34:26.807Z,11.33
2018-05-23T00:36:55.879Z,11.20
2018-05-23T00:39:24.178Z,11.67
2018-05-23T00:41:53.264Z,11.73
2018-05-23T00:44:21.529Z,11.80
2018-05-23T00:46:49.836Z,11.87
2018-05-23T00:49:18.965Z,10.77
2018-05-23T00:51:47.214Z,11.13
2018-05-23T00:54:16.282Z,11.80
2018-05-23T00:56:44.580Z,11.87
2018-05-23T00:59:13.643Z,11.53
2018-05-23T01:01:41.952Z,11.63
2018-05-23T01:04:11.019Z,12.20
2018-05-23T01:06:39.330Z,11.27
2018-05-23T01:09:08.418Z,11.63
2018-05-23T01:11:37.957Z,12.80
2018-05-23T01:14:06.277Z,11.73
2018-05-23T01:16:34.588Z,11.70
2018-05-23T01:19:02.872Z,10.93
2018-05-23T01:21:31.233Z,11.30
2018-05-23T01:24:00.323Z,11.97
2018-05-23T01:26:29.393Z,12.53
2018-05-23T01:28:57.708Z,11.57
2018-05-23T01:31:26.789Z,11.13
2018-05-23T01:33:55.084Z,11.60
2018-05-23T01:36:24.207Z,12.50
2018-05-23T01:38:52.659Z,12.13
2018-05-23T01:41:21.721Z,12.37
2018-05-23T01:43:50.036Z,12.10
2018-05-23T01:46:18.333Z,12.03
2018-05-23T01:49:04.409Z,11.60
2018-05-23T01:51:33.474Z,11.33
2018-05-23T01:54:01.871Z,12.07
2018-05-23T01:56:30.128Z,12.47
2018-05-23T01:58:58.406Z,12.00
2018-05-23T02:01:26.721Z,11.60
2018-05-23T02:03:55.099Z,11.67
2018-05-23T02:06:23.426Z,11.20
2018-05-23T02:08:51.758Z,11.20
2018-05-23T02:11:20.900Z,11.20
2018-05-23T02:13:50.049Z,11.63
2018-05-23T02:16:19.164Z,12.17
2018-05-23T02:18:47.479Z,10.60
2018-05-23T02:21:15.806Z,11.57
2018-05-23T02:23:44.119Z,11.03
2018-05-23T02:26:13.189Z,11.23
2018-05-23T02:28:41.825Z,11.07
2018-05-23T02:31:10.140Z,10.80
2018-05-23T02:33:38.428Z,11.00
2018-05-23T02:36:06.744Z,10.87
2018-05-23T02:38:35.061Z,11.93
2018-05-23T02:41:04.123Z,11.60
2018-05-23T02:43:32.429Z,12.03
2018-05-23T02:46:01.481Z,11.50
2018-05-23T02:48:29.790Z,11.60
2018-05-23T02:50:58.097Z,10.83
2018-05-23T02:53:26.416Z,11.33
2018-05-23T02:55:54.685Z,11.07
2018-05-23T02:58:22.975Z,11.93
2018-05-23T03:00:51.274Z,11.20
2018-05-23T03:03:19.571Z,10.03
2018-05-23T03:05:48.592Z,10.90
2018-05-23T03:08:16.969Z,11.30
2018-05-23T03:10:45.415Z,11.10
2018-05-23T03:13:14.502Z,10.77
2018-05-23T03:15:42.742Z,10.17
2018-05-23T03:18:11.276Z,10.80
2018-05-23T03:20:40.311Z,11.17
2018-05-23T03:23:08.644Z,11.23
2018-05-23T03:25:37.684Z,9.87
2018-05-23T03:28:05.981Z,10.60
2018-05-23T03:30:34.349Z,10.63
2018-05-23T03:33:02.724Z,10.20
2018-05-23T03:35:30.968Z,10.90
2018-05-23T03:37:59.385Z,11.03
2018-05-23T03:40:27.688Z,10.43
2018-05-23T03:42:56.009Z,10.40
2018-05-23T03:45:24.318Z,10.60
2018-05-23T03:47:53.381Z,10.70
2018-05-23T03:50:21.705Z,10.70
2018-05-23T03:52:50.347Z,10.83
2018-05-23T03:55:18.725Z,10.70
2018-05-23T03:57:46.954Z,10.63
2018-05-23T04:00:33.025Z,10.67
2018-05-23T04:03:19.104Z,10.30
2018-05-23T04:08:58.795Z,11.57
2018-05-23T04:11:27.108Z,10.73
2018-05-23T04:13:56.193Z,10.97
2018-05-23T04:16:24.496Z,11.47
2018-05-23T04:18:53.110Z,11.70
2018-05-23T04:21:21.435Z,11.03
2018-05-23T04:23:49.734Z,11.00
2018-05-23T04:26:18.067Z,10.33
2018-05-23T04:28:46.401Z,10.13
2018-05-23T04:31:14.694Z,9.47
2018-05-23T04:33:42.976Z,10.80
2018-05-23T04:36:11.404Z,10.57
2018-05-23T04:38:40.382Z,9.60
2018-05-23T04:41:08.693Z,9.20
2018-05-23T04:43:37.751Z,9.03
2018-05-23T04:46:06.052Z,9.63
2018-05-23T04:48:35.107Z,9.07
2018-05-23T04:51:03.410Z,9.10
2018-05-23T04:53:31.765Z,8.10
2018-05-23T04:56:00.076Z,8.40
2018-05-23T04:58:28.402Z,8.50
2018-05-23T05:00:56.739Z,9.43
2018-05-23T05:03:25.805Z,9.77
2018-05-23T05:05:54.374Z,10.10
2018-05-23T05:08:22.717Z,9.67
2018-05-23T05:10:51.099Z,9.93
2018-05-23T05:13:19.431Z,9.57
2018-05-23T05:15:47.717Z,9.87
2018-05-23T05:18:16.003Z,9.57
2018-05-23T05:20:44.297Z,9.37
2018-05-23T05:23:13.376Z,9.10
2018-05-23T05:25:41.666Z,9.13
2018-05-23T05:28:10.739Z,9.87
2018-05-23T05:30:39.028Z,9.87
2018-05-23T05:33:07.336Z,9.27
2018-05-23T05:35:35.662Z,9.87
2018-05-23T05:38:03.977Z,9.47
2018-05-23T05:40:33.047Z,9.77
2018-05-23T05:43:01.346Z,9.70
2018-05-23T05:45:30.405Z,9.60
2018-05-23T05:47:59.194Z,9.03
2018-05-23T05:50:27.474Z,8.43
2018-05-23T05:52:55.776Z,9.10
2018-05-23T05:55:24.071Z,9.27
2018-05-23T05:57:53.132Z,8.73
2018-05-23T06:00:21.469Z,9.23
2018-05-23T06:02:49.754Z,9.67
2018-05-23T06:05:18.126Z,8.63
2018-05-23T06:07:47.151Z,8.47
2018-05-23T06:10:15.447Z,8.80
2018-05-23T06:12:43.797Z,8.10
2018-05-23T06:15:12.151Z,8.13
2018-05-23T06:17:40.443Z,7.97
2018-05-23T06:20:08.806Z,7.73
2018-05-23T06:22:37.155Z,7.60
2018-05-23T06:25:06.197Z,8.03
2018-05-23T06:27:34.577Z,7.67
2018-05-23T06:30:02.957Z,7.90
2018-05-23T06:32:31.331Z,8.37
2018-05-23T06:34:59.680Z,7.20
2018-05-23T06:37:28.014Z,7.47
2018-05-23T06:39:56.371Z,7.87
2018-05-23T06:42:25.416Z,7.30
2018-05-23T06:44:54.633Z,6.90
2018-05-23T06:47:22.965Z,6.77
2018-05-23T06:49:51.241Z,7.10
2018-05-23T06:52:19.568Z,7.57
2018-05-23T06:54:47.889Z,7.17
2018-05-23T06:57:16.216Z,7.60
2018-05-23T06:59:45.260Z,7.10
2018-05-23T07:02:13.684Z,7.53
2018-05-23T07:04:43.026Z,7.23
2018-05-23T07:07:11.343Z,7.30
2018-05-23T07:09:39.664Z,7.23
2018-05-23T07:12:07.984Z,7.43
2018-05-23T07:14:36.336Z,7.60
2018-05-23T07:17:05.004Z,7.40
2018-05-23T07:19:33.421Z,7.47
2018-05-23T07:22:01.758Z,6.60
2018-05-23T07:24:30.366Z,7.20
2018-05-23T07:26:58.682Z,6.70
2018-05-23T07:29:27.218Z,6.47
2018-05-23T07:31:55.617Z,6.43
2018-05-23T07:34:23.905Z,5.53
2018-05-23T07:36:52.220Z,5.60
2018-05-23T07:39:21.287Z,6.17
2018-05-23T07:41:49.589Z,6.70
2018-05-23T07:44:18.640Z,6.80
2018-05-23T07:46:46.951Z,5.40
2018-05-23T07:49:15.351Z,5.80
2018-05-23T07:51:44.467Z,5.70
2018-05-23T07:54:12.796Z,6.13
2018-05-23T07:56:41.182Z,5.43
2018-05-23T07:59:09.798Z,5.30
2018-05-23T08:01:38.840Z,5.17
2018-05-23T08:04:07.155Z,6.00
2018-05-23T08:06:36.252Z,5.83
2018-05-23T08:09:06.111Z,5.97
2018-05-23T08:11:34.460Z,4.83
2018-05-23T08:14:03.568Z,4.90
2018-05-23T08:16:31.856Z,4.70
2018-05-23T08:19:00.177Z,5.13
2018-05-23T08:21:28.512Z,5.27
2018-05-23T08:23:56.846Z,4.30
2018-05-23T08:26:25.923Z,4.20
2018-05-23T08:28:54.188Z,4.70
2018-05-23T08:31:23.369Z,4.37
2018-05-23T08:33:51.680Z,4.50
2018-05-23T08:36:20.036Z,4.60
2018-05-23T08:38:49.114Z,4.30
2018-05-23T08:41:17.398Z,4.37
2018-05-23T08:43:45.721Z,4.53
2018-05-23T08:46:14.318Z,4.37
2018-05-23T08:48:43.441Z,4.43
2018-05-23T08:51:11.904Z,4.70
2018-05-23T08:53:40.999Z,4.23
2018-05-23T08:56:09.319Z,4.33
2018-05-23T08:58:37.675Z,4.60
2018-05-23T09:01:06.010Z,4.40
2018-05-23T09:03:34.288Z,4.33
2018-05-23T09:06:02.609Z,4.20
2018-05-23T09:08:30.930Z,4.63
2018-05-23T09:10:59.274Z,4.77
2018-05-23T09:13:27.583Z,4.57
2018-05-23T09:15:55.907Z,4.67
2018-05-23T09:18:24.175Z,4.30
2018-05-23T09:20:52.556Z,4.50
2018-05-23T09:23:20.872Z,3.80
2018-05-23T09:25:49.241Z,4.80
2018-05-23T09:28:17.934Z,4.23
2018-05-23T09:30:46.234Z,4.60
2018-05-23T09:33:14.569Z,4.40
2018-05-23T09:35:42.892Z,4.53
2018-05-23T09:38:11.125Z,4.93
2018-05-23T09:40:39.484Z,4.60
2018-05-23T09:43:08.594Z,4.50
2018-05-23T09:45:36.889Z,4.77
2018-05-23T09:48:05.342Z,5.03
2018-05-23T09:50:34.437Z,5.03
2018-05-23T09:53:03.459Z,5.07
2018-05-23T09:55:31.775Z,4.87
2018-05-23T09:58:00.866Z,5.03
2018-05-23T10:00:29.156Z,5.57
2018-05-23T10:02:58.324Z,5.00
2018-05-23T10:05:26.617Z,4.70
2018-05-23T10:07:54.936Z,5.27
2018-05-23T10:10:23.977Z,5.43
2018-05-23T10:12:52.291Z,5.50
2018-05-23T10:15:21.620Z,5.40
2018-05-23T10:17:49.958Z,5.20
2018-05-23T10:20:18.273Z,5.40
2018-05-23T10:22:46.585Z,5.27
2018-05-23T10:25:14.948Z,5.50
2018-05-23T10:27:43.373Z,5.37
2018-05-23T10:30:11.711Z,5.33
2018-05-23T10:32:40.018Z,5.30
2018-05-23T10:35:08.317Z,4.90
2018-05-23T10:37:36.610Z,5.07
2018-05-23T10:40:05.747Z,4.90
2018-05-23T10:42:34.059Z,4.80
2018-05-23T10:45:02.365Z,4.63
2018-05-23T10:47:31.450Z,4.53
2018-05-23T10:50:00.520Z,4.53
2018-05-23T10:52:28.835Z,4.60
2018-05-23T10:54:57.918Z,5.00
2018-05-23T10:57:27.686Z,5.30
2018-05-23T10:59:56.057Z,5.20
2018-05-23T11:02:25.028Z,4.97
2018-05-23T11:04:53.352Z,4.90
2018-05-23T11:07:21.682Z,4.90
2018-05-23T11:09:49.998Z,4.97
2018-05-23T11:12:18.317Z,4.40
2018-05-23T11:14:47.537Z,4.80
2018-05-23T11:17:15.884Z,4.40
2018-05-23T11:19:44.215Z,4.47
2018-05-23T11:22:12.512Z,4.97
2018-05-23T11:24:40.838Z,5.00
2018-05-23T11:27:09.897Z,4.23
2018-05-23T11:29:38.330Z,4.17
2018-05-23T11:32:06.644Z,4.40
2018-05-23T11:34:34.971Z,4.50
2018-05-23T11:37:03.303Z,3.97
2018-05-23T11:39:31.628Z,3.90
2018-05-23T11:42:00.100Z,4.37
2018-05-23T11:44:28.678Z,4.00
2018-05-23T11:46:57.765Z,4.37
2018-05-23T11:49:27.072Z,3.83
2018-05-23T11:51:56.248Z,3.73
2018-05-23T11:54:24.553Z,3.87
2018-05-23T11:56:53.613Z,4.00
2018-05-23T11:59:21.899Z,3.83
2018-05-23T12:01:50.218Z,3.67
2018-05-23T12:04:19.256Z,3.90
2018-05-23T12:06:47.600Z,3.77
2018-05-23T12:09:15.907Z,3.60
2018-05-23T12:11:44.240Z,3.73
2018-05-23T12:14:12.543Z,3.33
2018-05-23T12:16:40.837Z,3.60
2018-05-23T12:19:09.215Z,3.17
2018-05-23T12:21:37.516Z,3.80
2018-05-23T12:24:06.162Z,3.40
2018-05-23T12:26:34.457Z,3.63
2018-05-23T12:29:02.787Z,3.20
2018-05-23T12:31:32.110Z,3.60
2018-05-23T12:34:00.438Z,3.07
2018-05-23T12:36:28.726Z,3.13
2018-05-23T12:38:57.033Z,3.60
2018-05-23T12:41:25.440Z,3.20
2018-05-23T12:43:53.829Z,3.00
2018-05-23T12:46:22.133Z,3.13
2018-05-23T12:48:50.452Z,3.00
2018-05-23T12:51:18.776Z,3.07
2018-05-23T12:53:47.141Z,3.57
2018-05-23T12:56:15.533Z,3.23
2018-05-23T12:58:43.861Z,3.40
2018-05-23T13:01:12.923Z,3.20
2018-05-23T13:03:41.251Z,3.50
2018-05-23T13:06:09.577Z,3.00
2018-05-23T13:08:37.891Z,3.30
2018-05-23T13:11:06.183Z,3.30
2018-05-23T13:13:34.538Z,3.20
2018-05-23T13:16:03.625Z,3.50
2018-05-23T13:18:32.685Z,3.20
2018-05-23T13:21:01.070Z,3.60
2018-05-23T13:23:29.396Z,3.50
2018-05-23T13:25:58.583Z,3.00
2018-05-23T13:28:26.798Z,3.70
2018-05-23T13:30:55.081Z,3.00
2018-05-23T13:33:24.146Z,3.10
2018-05-23T13:35:52.461Z,3.83
2018-05-23T13:38:20.729Z,3.03
2018-05-23T13:40:49.844Z,3.37
2018-05-23T13:43:18.113Z,3.50
2018-05-23T13:45:46.414Z,2.80
2018-05-23T13:48:14.788Z,2.97
2018-05-23T13:50:43.101Z,3.13
2018-05-23T13:53:12.179Z,2.90
2018-05-23T13:55:41.227Z,2.90
2018-05-23T13:58:09.540Z,3.07
2018-05-23T14:00:38.322Z,3.50
2018-05-23T14:03:06.632Z,3.40
2018-05-23T14:05:35.759Z,2.90
2018-05-23T14:08:04.073Z,3.00
2018-05-23T14:10:33.884Z,2.90
2018-05-23T14:13:02.209Z,2.73
2018-05-23T14:15:30.538Z,2.60
2018-05-23T14:17:58.861Z,3.10
2018-05-23T14:20:27.905Z,3.27
2018-05-23T14:22:56.243Z,2.90
2018-05-23T14:25:24.582Z,2.90
2018-05-23T14:27:52.925Z,3.03
2018-05-23T14:30:21.311Z,2.87
2018-05-23T14:32:49.594Z,2.73
2018-05-23T14:35:17.946Z,2.63
2018-05-23T14:37:46.227Z,2.73
2018-05-23T14:40:14.698Z,2.50
2018-05-23T14:42:43.398Z,2.80
2018-05-23T14:45:11.726Z,3.13
2018-05-23T14:47:40.032Z,2.80
2018-05-23T14:50:08.371Z,2.97
2018-05-23T14:52:36.679Z,2.77
2018-05-23T14:55:05.801Z,2.57
2018-05-23T14:57:34.113Z,2.80
2018-05-23T15:00:02.455Z,2.47
2018-05-23T15:02:30.842Z,2.63
2018-05-23T15:04:59.080Z,2.80
2018-05-23T15:07:28.266Z,2.80
2018-05-23T15:09:57.365Z,2.60
2018-05-23T15:12:27.277Z,2.77
2018-05-23T15:14:56.333Z,2.80
2018-05-23T15:17:24.629Z,3.10
2018-05-23T15:19:53.069Z,2.60
2018-05-23T15:22:21.358Z,2.50
2018-05-23T15:24:49.693Z,2.80
2018-05-23T15:27:18.773Z,2.80
2018-05-23T15:29:47.366Z,2.67
2018-05-23T15:32:16.420Z,2.90
2018-05-23T15:34:44.892Z,2.80
2018-05-23T15:37:14.058Z,3.00
2018-05-23T15:39:43.126Z,2.33
2018-05-23T15:42:11.455Z,2.80
2018-05-23T15:44:39.730Z,2.73
2018-05-23T15:47:08.060Z,2.90
2018-05-23T15:49:36.483Z,2.80
2018-05-23T15:52:04.820Z,2.87
2018-05-23T15:54:33.117Z,2.83
2018-05-23T15:57:02.339Z,2.57
2018-05-23T15:59:30.672Z,3.03
2018-05-23T16:01:58.991Z,2.80
2018-05-23T16:04:27.311Z,2.87
2018-05-23T16:06:55.658Z,2.87
2018-05-23T16:09:24.097Z,2.90
2018-05-23T16:11:52.349Z,2.80
2018-05-23T16:14:20.714Z,2.50
2018-05-23T16:16:49.584Z,2.67
2018-05-23T16:19:17.875Z,2.97
2018-05-23T16:21:46.169Z,3.07
2018-05-23T16:24:14.479Z,2.90
2018-05-23T16:26:43.543Z,3.30
2018-05-23T16:29:11.840Z,3.00
2018-05-23T16:31:40.183Z,3.30
2018-05-23T16:34:08.498Z,2.93
2018-05-23T16:36:36.760Z,3.23
2018-05-23T16:39:05.853Z,3.13
2018-05-23T16:41:34.167Z,3.27
2018-05-23T16:44:03.258Z,3.20
2018-05-23T16:46:32.440Z,3.00
2018-05-23T16:49:05.018Z,3.17
2018-05-23T16:51:33.350Z,3.07
2018-05-23T16:54:01.689Z,2.90
2018-05-23T16:56:30.825Z,3.23
2018-05-23T16:58:59.141Z,2.73
2018-05-23T17:01:27.469Z,2.80
2018-05-23T17:03:55.805Z,3.27
2018-05-23T17:06:24.186Z,3.00
2018-05-23T17:08:52.441Z,2.90
2018-05-23T17:11:20.888Z,3.00
2018-05-23T17:13:49.188Z,3.00
2018-05-23T17:16:17.514Z,3.10
2018-05-23T17:18:46.678Z,2.90
2018-05-23T17:21:14.945Z,4.13
2018-05-23T17:23:43.247Z,3.00
2018-05-23T17:26:11.596Z,2.70
2018-05-23T17:28:39.896Z,3.10
2018-05-23T17:31:08.213Z,3.00
2018-05-23T17:33:36.524Z,2.70
2018-05-23T17:36:05.577Z,2.90
2018-05-23T17:38:34.701Z,2.97
2018-05-23T17:41:02.979Z,2.87
2018-05-23T17:43:31.302Z,3.00
2018-05-23T17:45:59.610Z,2.63
2018-05-23T17:48:28.722Z,2.80
2018-05-23T17:50:57.266Z,3.10
2018-05-23T17:53:25.545Z,3.13
2018-05-23T17:55:54.660Z,2.60
2018-05-23T17:58:23.843Z,2.97
2018-05-23T18:00:52.907Z,2.60
2018-05-23T18:03:21.517Z,3.00
2018-05-23T18:05:49.902Z,3.20
2018-05-23T18:08:18.131Z,3.00
2018-05-23T18:10:46.430Z,2.87
2018-05-23T18:13:14.748Z,3.10
2018-05-23T18:15:43.779Z,3.20
2018-05-23T18:18:12.092Z,2.80
2018-05-23T18:20:40.421Z,3.37
2018-05-23T18:23:08.738Z,2.73
2018-05-23T18:25:37.060Z,2.67
2018-05-23T18:28:05.368Z,2.70
2018-05-23T18:30:33.709Z,2.87
2018-05-23T18:33:03.225Z,3.13
2018-05-23T18:35:31.552Z,3.00
2018-05-23T18:37:59.870Z,3.20
2018-05-23T18:40:28.928Z,3.10
2018-05-23T18:42:57.259Z,2.87
2018-05-23T18:45:25.677Z,2.77
2018-05-23T18:47:53.975Z,3.20
2018-05-23T18:50:22.288Z,3.07
2018-05-23T18:52:50.566Z,3.17
2018-05-23T18:55:19.665Z,3.00
2018-05-23T18:57:48.134Z,2.90
2018-05-23T19:00:17.228Z,3.10
2018-05-23T19:02:46.295Z,2.70
2018-05-23T19:05:14.709Z,2.60
2018-05-23T19:07:43.034Z,2.90
2018-05-23T19:10:11.382Z,2.90
2018-05-23T19:12:39.761Z,2.40
2018-05-23T19:15:08.132Z,2.73
2018-05-23T19:17:36.460Z,2.60
2018-05-23T19:20:05.146Z,2.83
2018-05-23T19:22:33.403Z,2.50
2018-05-23T19:25:01.709Z,2.70
2018-05-23T19:27:30.009Z,2.70
2018-05-23T19:29:59.116Z,2.90
2018-05-23T19:32:28.184Z,2.63
2018-05-23T19:34:56.456Z,3.30
2018-05-23T19:37:24.777Z,3.13
2018-05-23T19:39:53.349Z,3.47
2018-05-23T19:42:21.554Z,3.00
2018-05-23T19:44:49.863Z,3.20
2018-05-23T19:47:18.196Z,2.90
2018-05-23T19:49:46.505Z,2.60
2018-05-23T19:52:14.828Z,3.20
2018-05-23T19:54:43.903Z,2.70
2018-05-23T19:57:12.221Z,2.70
2018-05-23T19:59:41.255Z,2.40
2018-05-23T20:02:10.080Z,2.37
2018-05-23T20:04:39.053Z,2.47
2018-05-23T20:07:08.013Z,2.90
2018-05-23T20:09:36.343Z,2.43
2018-05-23T20:12:05.446Z,2.53
2018-05-23T20:14:34.625Z,2.23
2018-05-23T20:17:02.881Z,2.37
2018-05-23T20:19:31.229Z,2.60
2018-05-23T20:21:59.522Z,2.33
2018-05-23T20:24:27.845Z,2.17
2018-05-23T20:27:03.919Z,2.20
2018-05-23T20:29:33.076Z,2.70
2018-05-23T20:32:01.475Z,2.47
2018-05-23T20:34:29.810Z,2.43
2018-05-23T20:36:58.146Z,2.40
2018-05-23T20:39:26.456Z,2.63
2018-05-23T20:41:54.771Z,3.17
2018-05-23T20:44:23.066Z,2.30
2018-05-23T20:46:51.346Z,2.10
2018-05-23T20:49:20.389Z,2.20
2018-05-23T20:51:48.687Z,1.97
2018-05-23T20:54:16.973Z,2.13
2018-05-23T20:56:45.311Z,2.50
2018-05-23T20:59:13.607Z,2.20
2018-05-23T21:01:41.922Z,2.37
2018-05-23T21:04:10.201Z,2.37
2018-05-23T21:06:38.490Z,2.20
2018-05-23T21:09:07.586Z,2.00
2018-05-23T21:11:36.687Z,1.97
2018-05-23T21:14:04.974Z,2.03
2018-05-23T21:16:34.067Z,2.20
2018-05-23T21:19:03.110Z,2.20
2018-05-23T21:21:31.421Z,2.20
2018-05-23T21:23:59.736Z,2.27
2018-05-23T21:26:28.044Z,2.27
2018-05-23T21:28:56.361Z,2.23
2018-05-23T21:31:25.439Z,2.20
2018-05-23T21:33:53.756Z,2.27
2018-05-23T21:36:22.048Z,2.67
2018-05-23T21:38:50.346Z,1.90
2018-05-23T21:41:18.761Z,2.37
2018-05-23T21:43:47.102Z,2.10
2018-05-23T21:46:15.446Z,2.00
2018-05-23T21:48:43.805Z,1.90
2018-05-23T21:51:12.995Z,2.20
2018-05-23T21:53:41.373Z,4.00
2018-05-23T21:56:09.714Z,3.00
2018-05-23T21:58:38.045Z,2.47
2018-05-23T22:01:07.187Z,2.50
2018-05-23T22:03:35.504Z,2.40
2018-05-23T22:06:03.852Z,2.37
2018-05-23T22:08:32.181Z,2.47
2018-05-23T22:11:01.279Z,1.83
2018-05-23T22:13:29.588Z,2.20
2018-05-23T22:15:57.931Z,2.20
2018-05-23T22:18:27.026Z,1.97
2018-05-23T22:20:55.348Z,2.13
2018-05-23T22:23:24.395Z,2.10
2018-05-23T22:25:53.509Z,2.10
2018-05-23T22:28:21.914Z,1.73
2018-05-23T22:30:50.331Z,1.73
2018-05-23T22:33:18.880Z,1.90
2018-05-23T22:35:47.288Z,1.80
2018-05-23T22:38:15.672Z,1.97
2018-05-23T22:40:43.978Z,1.97
2018-05-23T22:43:12.283Z,1.63
2018-05-23T22:45:40.605Z,1.97
2018-05-23T22:48:08.919Z,1.70
2018-05-23T22:50:37.307Z,1.90
2018-05-23T22:53:05.626Z,1.90
2018-05-23T22:55:34.048Z,1.70
2018-05-23T22:58:05.582Z,1.87
2018-05-23T23:00:33.905Z,2.07
2018-05-23T23:03:02.287Z,1.60
2018-05-23T23:05:30.666Z,1.73
2018-05-23T23:07:58.999Z,2.00
2018-05-23T23:10:27.820Z,1.50
2018-05-23T23:12:56.127Z,1.67
2018-05-23T23:15:24.420Z,1.90
2018-05-23T23:17:52.727Z,1.70
2018-05-23T23:20:21.805Z,1.60
2018-05-23T23:22:50.157Z,1.70
2018-05-23T23:27:53.013Z,1.40
2018-05-23T23:30:21.286Z,1.60
2018-05-23T23:32:50.360Z,1.83
2018-05-23T23:35:18.680Z,1.60
2018-05-23T23:37:46.984Z,1.80
2018-05-23T23:40:15.277Z,1.73
2018-05-23T23:42:43.628Z,1.63
2018-05-23T23:45:11.984Z,1.73
2018-05-23T23:47:41.102Z,1.47
2018-05-23T23:50:09.345Z,1.77
2018-05-23T23:52:37.693Z,1.60
2018-05-23T23:55:07.500Z,1.60
2018-05-23T23:57:35.854Z,1.70
